sensor_id;sensor_type;location;lat;lon;timestamp;P1;durP1;ratioP1;P2;durP2;ratioP2
8652;SDS011;4364;52.426;9.424;2023-05-07T00:00:17;31.57;;;21.73;;
8652;SDS011;4364;52.426;9.424;2023-05-07T00:02:45;32.37;;;22.37;;
8652;SDS011;4364;52.426;9.424;2023-05-07T00:05:12;29.87;;;23.27;;
8652;SDS011;4364;52.426;9.424;2023-05-07T00:07:39;30.73;;;22.47;;
8652;SDS011;4364;52.426;9.424;2023-05-07T00:10:06;31.97;;;22.40;;
8652;SDS011;4364;52.426;9.424;2023-05-07T00:12:34;34.40;;;23.73;;
8652;SDS011;4364;52.426;9.424;2023-05-07T00:15:01;31.10;;;23.63;;
8652;SDS011;4364;52.426;9.424;2023-05-07T00:17:29;32.93;;;24.27;;
8652;SDS011;4364;52.426;9.424;2023-05-07T00:19:56;35.70;;;25.63;;
8652;SDS011;4364;52.426;9.424;2023-05-07T00:22:23;34.53;;;23.93;;
8652;SDS011;4364;52.426;9.424;2023-05-07T00:24:49;35.63;;;24.10;;
8652;SDS011;4364;52.426;9.424;2023-05-07T00:27:16;35.00;;;24.53;;
8652;SDS011;4364;52.426;9.424;2023-05-07T00:29:42;35.80;;;24.47;;
8652;SDS011;4364;52.426;9.424;2023-05-07T00:32:08;37.30;;;26.10;;
8652;SDS011;4364;52.426;9.424;2023-05-07T00:34:35;34.90;;;25.10;;
8652;SDS011;4364;52.426;9.424;2023-05-07T00:37:02;38.80;;;26.27;;
8652;SDS011;4364;52.426;9.424;2023-05-07T00:39:31;33.63;;;24.17;;
8652;SDS011;4364;52.426;9.424;2023-05-07T00:41:58;34.80;;;23.37;;
8652;SDS011;4364;52.426;9.424;2023-05-07T00:44:25;32.13;;;22.87;;
8652;SDS011;4364;52.426;9.424;2023-05-07T00:46:52;33.67;;;23.13;;
8652;SDS011;4364;52.426;9.424;2023-05-07T00:49:20;34.43;;;23.87;;
8652;SDS011;4364;52.426;9.424;2023-05-07T00:51:46;39.83;;;24.37;;
8652;SDS011;4364;52.426;9.424;2023-05-07T00:54:13;34.57;;;23.37;;
8652;SDS011;4364;52.426;9.424;2023-05-07T00:56:40;34.23;;;23.80;;
8652;SDS011;4364;52.426;9.424;2023-05-07T00:59:06;35.10;;;24.13;;
8652;SDS011;4364;52.426;9.424;2023-05-07T01:01:34;35.73;;;23.97;;
8652;SDS011;4364;52.426;9.424;2023-05-07T01:04:00;37.13;;;24.77;;
8652;SDS011;4364;52.426;9.424;2023-05-07T01:06:28;38.47;;;25.17;;
8652;SDS011;4364;52.426;9.424;2023-05-07T01:08:57;38.00;;;25.37;;
8652;SDS011;4364;52.426;9.424;2023-05-07T01:11:24;36.90;;;25.70;;
8652;SDS011;4364;52.426;9.424;2023-05-07T01:13:51;37.00;;;25.30;;
8652;SDS011;4364;52.426;9.424;2023-05-07T01:16:18;38.70;;;25.93;;
8652;SDS011;4364;52.426;9.424;2023-05-07T01:18:45;35.17;;;24.80;;
8652;SDS011;4364;52.426;9.424;2023-05-07T01:21:14;35.07;;;23.73;;
8652;SDS011;4364;52.426;9.424;2023-05-07T01:23:42;36.47;;;24.43;;
8652;SDS011;4364;52.426;9.424;2023-05-07T01:26:11;36.50;;;24.07;;
8652;SDS011;4364;52.426;9.424;2023-05-07T01:28:37;37.73;;;23.17;;
8652;SDS011;4364;52.426;9.424;2023-05-07T01:31:04;34.60;;;23.07;;
8652;SDS011;4364;52.426;9.424;2023-05-07T01:33:33;36.67;;;23.23;;
8652;SDS011;4364;52.426;9.424;2023-05-07T01:36:04;34.00;;;23.03;;
8652;SDS011;4364;52.426;9.424;2023-05-07T01:38:33;35.47;;;23.33;;
8652;SDS011;4364;52.426;9.424;2023-05-07T01:41:00;34.07;;;23.40;;
8652;SDS011;4364;52.426;9.424;2023-05-07T01:43:28;36.57;;;24.67;;
8652;SDS011;4364;52.426;9.424;2023-05-07T01:46:00;32.13;;;22.80;;
8652;SDS011;4364;52.426;9.424;2023-05-07T01:48:29;33.33;;;23.40;;
8652;SDS011;4364;52.426;9.424;2023-05-07T01:50:56;36.43;;;24.33;;
8652;SDS011;4364;52.426;9.424;2023-05-07T01:53:23;35.20;;;24.00;;
8652;SDS011;4364;52.426;9.424;2023-05-07T01:55:49;37.23;;;25.63;;
8652;SDS011;4364;52.426;9.424;2023-05-07T01:58:16;34.53;;;24.30;;
8652;SDS011;4364;52.426;9.424;2023-05-07T02:00:42;38.03;;;25.43;;
8652;SDS011;4364;52.426;9.424;2023-05-07T02:03:09;37.13;;;24.97;;
8652;SDS011;4364;52.426;9.424;2023-05-07T02:05:43;37.43;;;24.80;;
8652;SDS011;4364;52.426;9.424;2023-05-07T02:08:17;35.67;;;24.67;;
8652;SDS011;4364;52.426;9.424;2023-05-07T02:10:44;37.03;;;25.93;;
8652;SDS011;4364;52.426;9.424;2023-05-07T02:13:10;37.00;;;25.20;;
8652;SDS011;4364;52.426;9.424;2023-05-07T02:15:37;36.63;;;25.97;;
8652;SDS011;4364;52.426;9.424;2023-05-07T02:18:07;35.43;;;24.87;;
8652;SDS011;4364;52.426;9.424;2023-05-07T02:20:35;37.03;;;26.30;;
8652;SDS011;4364;52.426;9.424;2023-05-07T02:23:02;36.70;;;26.33;;
8652;SDS011;4364;52.426;9.424;2023-05-07T02:25:29;38.70;;;25.33;;
8652;SDS011;4364;52.426;9.424;2023-05-07T02:27:57;38.30;;;25.80;;
8652;SDS011;4364;52.426;9.424;2023-05-07T02:30:34;34.10;;;24.47;;
8652;SDS011;4364;52.426;9.424;2023-05-07T02:33:00;33.50;;;23.43;;
8652;SDS011;4364;52.426;9.424;2023-05-07T02:35:27;31.93;;;21.73;;
8652;SDS011;4364;52.426;9.424;2023-05-07T02:37:54;31.17;;;21.30;;
8652;SDS011;4364;52.426;9.424;2023-05-07T02:40:23;31.63;;;21.57;;
8652;SDS011;4364;52.426;9.424;2023-05-07T02:42:49;30.47;;;20.57;;
8652;SDS011;4364;52.426;9.424;2023-05-07T02:45:16;33.50;;;20.57;;
8652;SDS011;4364;52.426;9.424;2023-05-07T02:47:43;30.63;;;19.90;;
8652;SDS011;4364;52.426;9.424;2023-05-07T02:50:10;31.53;;;19.13;;
8652;SDS011;4364;52.426;9.424;2023-05-07T02:52:38;28.30;;;19.00;;
8652;SDS011;4364;52.426;9.424;2023-05-07T02:55:04;29.03;;;19.20;;
8652;SDS011;4364;52.426;9.424;2023-05-07T02:57:31;28.67;;;19.07;;
8652;SDS011;4364;52.426;9.424;2023-05-07T02:59:58;28.10;;;17.70;;
8652;SDS011;4364;52.426;9.424;2023-05-07T03:02:27;26.70;;;16.83;;
8652;SDS011;4364;52.426;9.424;2023-05-07T03:04:54;27.83;;;17.93;;
8652;SDS011;4364;52.426;9.424;2023-05-07T03:07:20;27.50;;;17.13;;
8652;SDS011;4364;52.426;9.424;2023-05-07T03:09:47;25.97;;;16.70;;
8652;SDS011;4364;52.426;9.424;2023-05-07T03:12:13;23.20;;;16.13;;
8652;SDS011;4364;52.426;9.424;2023-05-07T03:14:40;24.77;;;15.83;;
8652;SDS011;4364;52.426;9.424;2023-05-07T03:17:06;26.43;;;16.77;;
8652;SDS011;4364;52.426;9.424;2023-05-07T03:19:33;22.37;;;15.40;;
8652;SDS011;4364;52.426;9.424;2023-05-07T03:22:00;23.03;;;15.53;;
8652;SDS011;4364;52.426;9.424;2023-05-07T03:24:26;20.83;;;14.40;;
8652;SDS011;4364;52.426;9.424;2023-05-07T03:26:53;21.17;;;14.40;;
8652;SDS011;4364;52.426;9.424;2023-05-07T03:29:19;20.47;;;13.80;;
8652;SDS011;4364;52.426;9.424;2023-05-07T03:31:46;21.27;;;14.30;;
8652;SDS011;4364;52.426;9.424;2023-05-07T03:34:13;18.20;;;13.17;;
8652;SDS011;4364;52.426;9.424;2023-05-07T03:36:39;21.97;;;14.90;;
8652;SDS011;4364;52.426;9.424;2023-05-07T03:39:08;19.40;;;13.77;;
8652;SDS011;4364;52.426;9.424;2023-05-07T03:41:38;19.37;;;14.83;;
8652;SDS011;4364;52.426;9.424;2023-05-07T03:44:05;21.27;;;14.53;;
8652;SDS011;4364;52.426;9.424;2023-05-07T03:46:33;24.93;;;15.67;;
8652;SDS011;4364;52.426;9.424;2023-05-07T03:49:00;20.77;;;14.47;;
8652;SDS011;4364;52.426;9.424;2023-05-07T03:51:27;21.93;;;14.33;;
8652;SDS011;4364;52.426;9.424;2023-05-07T03:53:54;18.20;;;13.27;;
8652;SDS011;4364;52.426;9.424;2023-05-07T03:56:23;18.20;;;12.70;;
8652;SDS011;4364;52.426;9.424;2023-05-07T03:58:53;17.67;;;12.80;;
8652;SDS011;4364;52.426;9.424;2023-05-07T04:01:20;18.50;;;12.70;;
8652;SDS011;4364;52.426;9.424;2023-05-07T04:03:47;16.93;;;12.33;;
8652;SDS011;4364;52.426;9.424;2023-05-07T04:06:15;19.77;;;13.40;;
8652;SDS011;4364;52.426;9.424;2023-05-07T04:08:43;16.50;;;12.47;;
8652;SDS011;4364;52.426;9.424;2023-05-07T04:11:12;18.40;;;13.03;;
8652;SDS011;4364;52.426;9.424;2023-05-07T04:13:38;18.37;;;13.07;;
8652;SDS011;4364;52.426;9.424;2023-05-07T04:16:07;18.30;;;12.87;;
8652;SDS011;4364;52.426;9.424;2023-05-07T04:18:36;17.90;;;12.30;;
8652;SDS011;4364;52.426;9.424;2023-05-07T04:21:03;16.57;;;11.87;;
8652;SDS011;4364;52.426;9.424;2023-05-07T04:23:32;19.80;;;13.07;;
8652;SDS011;4364;52.426;9.424;2023-05-07T04:26:02;15.97;;;12.07;;
8652;SDS011;4364;52.426;9.424;2023-05-07T04:28:36;18.47;;;12.33;;
8652;SDS011;4364;52.426;9.424;2023-05-07T04:31:03;16.70;;;11.90;;
8652;SDS011;4364;52.426;9.424;2023-05-07T04:33:32;18.37;;;12.40;;
8652;SDS011;4364;52.426;9.424;2023-05-07T04:36:02;16.50;;;12.03;;
8652;SDS011;4364;52.426;9.424;2023-05-07T04:38:34;18.57;;;12.70;;
8652;SDS011;4364;52.426;9.424;2023-05-07T04:41:05;20.70;;;13.33;;
8652;SDS011;4364;52.426;9.424;2023-05-07T04:43:37;19.13;;;13.20;;
8652;SDS011;4364;52.426;9.424;2023-05-07T04:46:04;19.57;;;13.73;;
8652;SDS011;4364;52.426;9.424;2023-05-07T04:48:31;20.07;;;13.87;;
8652;SDS011;4364;52.426;9.424;2023-05-07T04:50:59;23.33;;;15.03;;
8652;SDS011;4364;52.426;9.424;2023-05-07T04:53:26;20.53;;;14.00;;
8652;SDS011;4364;52.426;9.424;2023-05-07T04:55:55;22.13;;;14.63;;
8652;SDS011;4364;52.426;9.424;2023-05-07T04:58:31;21.30;;;14.10;;
8652;SDS011;4364;52.426;9.424;2023-05-07T05:00:58;20.07;;;14.10;;
8652;SDS011;4364;52.426;9.424;2023-05-07T05:03:27;22.70;;;15.77;;
8652;SDS011;4364;52.426;9.424;2023-05-07T05:05:54;23.60;;;14.77;;
8652;SDS011;4364;52.426;9.424;2023-05-07T05:08:22;18.50;;;14.33;;
8652;SDS011;4364;52.426;9.424;2023-05-07T05:10:48;20.30;;;13.87;;
8652;SDS011;4364;52.426;9.424;2023-05-07T05:13:16;20.73;;;14.20;;
8652;SDS011;4364;52.426;9.424;2023-05-07T05:15:43;20.37;;;13.10;;
8652;SDS011;4364;52.426;9.424;2023-05-07T05:18:10;18.50;;;13.43;;
8652;SDS011;4364;52.426;9.424;2023-05-07T05:20:38;22.33;;;15.23;;
8652;SDS011;4364;52.426;9.424;2023-05-07T05:23:05;19.97;;;14.17;;
8652;SDS011;4364;52.426;9.424;2023-05-07T05:25:32;18.93;;;13.93;;
8652;SDS011;4364;52.426;9.424;2023-05-07T05:28:00;20.87;;;14.70;;
8652;SDS011;4364;52.426;9.424;2023-05-07T05:30:29;21.70;;;15.80;;
8652;SDS011;4364;52.426;9.424;2023-05-07T05:32:55;22.17;;;15.47;;
8652;SDS011;4364;52.426;9.424;2023-05-07T05:35:23;21.17;;;15.43;;
8652;SDS011;4364;52.426;9.424;2023-05-07T05:37:50;21.50;;;15.70;;
8652;SDS011;4364;52.426;9.424;2023-05-07T05:40:17;21.30;;;15.03;;
8652;SDS011;4364;52.426;9.424;2023-05-07T05:42:44;22.40;;;14.97;;
8652;SDS011;4364;52.426;9.424;2023-05-07T05:45:13;19.33;;;14.13;;
8652;SDS011;4364;52.426;9.424;2023-05-07T05:47:40;19.73;;;14.47;;
8652;SDS011;4364;52.426;9.424;2023-05-07T05:50:07;20.07;;;13.90;;
8652;SDS011;4364;52.426;9.424;2023-05-07T05:52:34;20.40;;;14.07;;
8652;SDS011;4364;52.426;9.424;2023-05-07T05:55:01;19.37;;;13.97;;
8652;SDS011;4364;52.426;9.424;2023-05-07T05:57:28;19.57;;;13.93;;
8652;SDS011;4364;52.426;9.424;2023-05-07T05:59:55;17.70;;;13.60;;
8652;SDS011;4364;52.426;9.424;2023-05-07T06:02:22;20.83;;;13.93;;
8652;SDS011;4364;52.426;9.424;2023-05-07T06:04:49;18.87;;;13.63;;
8652;SDS011;4364;52.426;9.424;2023-05-07T06:07:18;21.33;;;13.90;;
8652;SDS011;4364;52.426;9.424;2023-05-07T06:09:45;18.67;;;13.33;;
8652;SDS011;4364;52.426;9.424;2023-05-07T06:12:12;21.43;;;13.83;;
8652;SDS011;4364;52.426;9.424;2023-05-07T06:14:38;20.60;;;14.07;;
8652;SDS011;4364;52.426;9.424;2023-05-07T06:17:05;18.03;;;13.20;;
8652;SDS011;4364;52.426;9.424;2023-05-07T06:19:32;17.67;;;12.80;;
8652;SDS011;4364;52.426;9.424;2023-05-07T06:21:59;18.00;;;13.10;;
8652;SDS011;4364;52.426;9.424;2023-05-07T06:24:29;17.37;;;12.63;;
8652;SDS011;4364;52.426;9.424;2023-05-07T06:26:56;19.40;;;12.50;;
8652;SDS011;4364;52.426;9.424;2023-05-07T06:29:26;17.20;;;12.07;;
8652;SDS011;4364;52.426;9.424;2023-05-07T06:31:53;16.53;;;11.90;;
8652;SDS011;4364;52.426;9.424;2023-05-07T06:34:21;16.33;;;11.53;;
8652;SDS011;4364;52.426;9.424;2023-05-07T06:36:49;15.07;;;11.43;;
8652;SDS011;4364;52.426;9.424;2023-05-07T06:39:28;17.50;;;11.77;;
8652;SDS011;4364;52.426;9.424;2023-05-07T06:41:55;17.10;;;11.70;;
8652;SDS011;4364;52.426;9.424;2023-05-07T06:44:26;13.73;;;11.03;;
8652;SDS011;4364;52.426;9.424;2023-05-07T06:47:14;15.17;;;10.57;;
8652;SDS011;4364;52.426;9.424;2023-05-07T06:49:44;12.87;;;10.33;;
8652;SDS011;4364;52.426;9.424;2023-05-07T06:52:14;13.23;;;10.73;;
8652;SDS011;4364;52.426;9.424;2023-05-07T06:54:41;15.83;;;10.83;;
8652;SDS011;4364;52.426;9.424;2023-05-07T06:57:08;14.23;;;11.27;;
8652;SDS011;4364;52.426;9.424;2023-05-07T06:59:34;16.93;;;12.10;;
8652;SDS011;4364;52.426;9.424;2023-05-07T07:02:01;13.73;;;10.67;;
8652;SDS011;4364;52.426;9.424;2023-05-07T07:04:28;16.03;;;11.50;;
8652;SDS011;4364;52.426;9.424;2023-05-07T07:07:02;14.73;;;11.10;;
8652;SDS011;4364;52.426;9.424;2023-05-07T07:09:29;13.23;;;10.57;;
8652;SDS011;4364;52.426;9.424;2023-05-07T07:11:58;13.60;;;10.73;;
8652;SDS011;4364;52.426;9.424;2023-05-07T07:14:24;13.47;;;11.30;;
8652;SDS011;4364;52.426;9.424;2023-05-07T07:16:52;13.80;;;10.63;;
8652;SDS011;4364;52.426;9.424;2023-05-07T07:19:21;13.53;;;10.53;;
8652;SDS011;4364;52.426;9.424;2023-05-07T07:21:50;12.90;;;10.30;;
8652;SDS011;4364;52.426;9.424;2023-05-07T07:24:17;12.47;;;10.10;;
8652;SDS011;4364;52.426;9.424;2023-05-07T07:26:50;13.93;;;10.93;;
8652;SDS011;4364;52.426;9.424;2023-05-07T07:29:18;12.93;;;10.87;;
8652;SDS011;4364;52.426;9.424;2023-05-07T07:31:46;13.00;;;10.37;;
8652;SDS011;4364;52.426;9.424;2023-05-07T07:34:14;12.77;;;10.70;;
8652;SDS011;4364;52.426;9.424;2023-05-07T07:36:41;12.40;;;11.10;;
8652;SDS011;4364;52.426;9.424;2023-05-07T07:39:14;12.60;;;10.67;;
8652;SDS011;4364;52.426;9.424;2023-05-07T07:41:42;12.30;;;10.40;;
8652;SDS011;4364;52.426;9.424;2023-05-07T07:44:08;13.07;;;11.03;;
8652;SDS011;4364;52.426;9.424;2023-05-07T07:46:36;13.07;;;11.07;;
8652;SDS011;4364;52.426;9.424;2023-05-07T07:49:03;12.47;;;11.17;;
8652;SDS011;4364;52.426;9.424;2023-05-07T07:51:30;12.47;;;11.17;;
8652;SDS011;4364;52.426;9.424;2023-05-07T07:53:58;12.43;;;11.23;;
8652;SDS011;4364;52.426;9.424;2023-05-07T07:56:25;12.93;;;11.10;;
8652;SDS011;4364;52.426;9.424;2023-05-07T07:58:52;13.73;;;12.30;;
8652;SDS011;4364;52.426;9.424;2023-05-07T08:01:19;14.57;;;12.70;;
8652;SDS011;4364;52.426;9.424;2023-05-07T08:03:46;14.60;;;12.30;;
8652;SDS011;4364;52.426;9.424;2023-05-07T08:06:13;15.27;;;13.03;;
8652;SDS011;4364;52.426;9.424;2023-05-07T08:08:41;15.60;;;12.83;;
8652;SDS011;4364;52.426;9.424;2023-05-07T08:11:07;15.67;;;13.57;;
8652;SDS011;4364;52.426;9.424;2023-05-07T08:13:35;16.07;;;13.57;;
8652;SDS011;4364;52.426;9.424;2023-05-07T08:16:02;17.60;;;14.07;;
8652;SDS011;4364;52.426;9.424;2023-05-07T08:18:30;20.60;;;14.47;;
8652;SDS011;4364;52.426;9.424;2023-05-07T08:21:00;15.70;;;13.87;;
8652;SDS011;4364;52.426;9.424;2023-05-07T08:23:29;15.23;;;13.27;;
8652;SDS011;4364;52.426;9.424;2023-05-07T08:25:57;17.43;;;14.20;;
8652;SDS011;4364;52.426;9.424;2023-05-07T08:28:24;16.50;;;14.23;;
8652;SDS011;4364;52.426;9.424;2023-05-07T08:30:51;15.87;;;13.87;;
8652;SDS011;4364;52.426;9.424;2023-05-07T08:33:17;17.90;;;15.27;;
8652;SDS011;4364;52.426;9.424;2023-05-07T08:35:44;15.63;;;13.97;;
8652;SDS011;4364;52.426;9.424;2023-05-07T08:38:12;16.93;;;14.10;;
8652;SDS011;4364;52.426;9.424;2023-05-07T08:40:39;17.87;;;15.13;;
8652;SDS011;4364;52.426;9.424;2023-05-07T08:43:12;18.10;;;15.27;;
8652;SDS011;4364;52.426;9.424;2023-05-07T08:45:41;16.87;;;15.07;;
8652;SDS011;4364;52.426;9.424;2023-05-07T08:48:14;17.87;;;15.93;;
8652;SDS011;4364;52.426;9.424;2023-05-07T08:50:45;18.33;;;15.83;;
8652;SDS011;4364;52.426;9.424;2023-05-07T08:53:12;18.17;;;16.20;;
8652;SDS011;4364;52.426;9.424;2023-05-07T08:55:40;17.40;;;15.40;;
8652;SDS011;4364;52.426;9.424;2023-05-07T08:58:07;19.53;;;16.03;;
8652;SDS011;4364;52.426;9.424;2023-05-07T09:00:37;17.43;;;14.57;;
8652;SDS011;4364;52.426;9.424;2023-05-07T09:03:06;16.90;;;15.17;;
8652;SDS011;4364;52.426;9.424;2023-05-07T09:05:35;18.77;;;16.70;;
8652;SDS011;4364;52.426;9.424;2023-05-07T09:08:05;19.53;;;17.43;;
8652;SDS011;4364;52.426;9.424;2023-05-07T09:10:33;19.63;;;17.53;;
8652;SDS011;4364;52.426;9.424;2023-05-07T09:13:02;20.90;;;18.67;;
8652;SDS011;4364;52.426;9.424;2023-05-07T09:15:29;20.03;;;18.03;;
8652;SDS011;4364;52.426;9.424;2023-05-07T09:18:00;19.70;;;17.67;;
8652;SDS011;4364;52.426;9.424;2023-05-07T09:20:32;19.10;;;16.93;;
8652;SDS011;4364;52.426;9.424;2023-05-07T09:23:00;18.80;;;16.80;;
8652;SDS011;4364;52.426;9.424;2023-05-07T09:25:28;16.90;;;15.20;;
8652;SDS011;4364;52.426;9.424;2023-05-07T09:28:00;17.33;;;15.07;;
8652;SDS011;4364;52.426;9.424;2023-05-07T09:30:30;18.77;;;16.37;;
8652;SDS011;4364;52.426;9.424;2023-05-07T09:33:00;19.27;;;17.27;;
8652;SDS011;4364;52.426;9.424;2023-05-07T09:35:30;16.97;;;15.17;;
8652;SDS011;4364;52.426;9.424;2023-05-07T09:38:02;16.97;;;15.27;;
8652;SDS011;4364;52.426;9.424;2023-05-07T09:40:32;16.03;;;14.37;;
8652;SDS011;4364;52.426;9.424;2023-05-07T09:43:11;17.87;;;15.07;;
8652;SDS011;4364;52.426;9.424;2023-05-07T09:45:49;16.00;;;13.83;;
8652;SDS011;4364;52.426;9.424;2023-05-07T09:48:19;16.23;;;14.40;;
8652;SDS011;4364;52.426;9.424;2023-05-07T09:50:48;16.70;;;14.90;;
8652;SDS011;4364;52.426;9.424;2023-05-07T09:53:20;16.00;;;14.30;;
8652;SDS011;4364;52.426;9.424;2023-05-07T09:55:49;16.43;;;14.67;;
8652;SDS011;4364;52.426;9.424;2023-05-07T09:58:18;16.87;;;13.83;;
8652;SDS011;4364;52.426;9.424;2023-05-07T10:00:45;14.17;;;12.67;;
8652;SDS011;4364;52.426;9.424;2023-05-07T10:03:14;14.60;;;13.00;;
8652;SDS011;4364;52.426;9.424;2023-05-07T10:05:50;14.87;;;13.03;;
8652;SDS011;4364;52.426;9.424;2023-05-07T10:08:18;14.27;;;12.77;;
8652;SDS011;4364;52.426;9.424;2023-05-07T10:10:48;14.67;;;12.93;;
8652;SDS011;4364;52.426;9.424;2023-05-07T10:13:19;13.57;;;11.40;;
8652;SDS011;4364;52.426;9.424;2023-05-07T10:15:50;14.97;;;12.27;;
8652;SDS011;4364;52.426;9.424;2023-05-07T10:18:18;13.93;;;11.97;;
8652;SDS011;4364;52.426;9.424;2023-05-07T10:20:51;15.17;;;12.93;;
8652;SDS011;4364;52.426;9.424;2023-05-07T10:23:22;14.23;;;12.73;;
8652;SDS011;4364;52.426;9.424;2023-05-07T10:25:54;14.00;;;12.43;;
8652;SDS011;4364;52.426;9.424;2023-05-07T10:28:29;13.97;;;12.53;;
8652;SDS011;4364;52.426;9.424;2023-05-07T10:31:09;13.33;;;11.93;;
8652;SDS011;4364;52.426;9.424;2023-05-07T10:34:08;14.13;;;11.67;;
8652;SDS011;4364;52.426;9.424;2023-05-07T10:36:40;13.37;;;11.97;;
8652;SDS011;4364;52.426;9.424;2023-05-07T10:39:09;14.80;;;12.03;;
8652;SDS011;4364;52.426;9.424;2023-05-07T10:41:36;14.07;;;12.10;;
8652;SDS011;4364;52.426;9.424;2023-05-07T10:44:03;13.73;;;12.30;;
8652;SDS011;4364;52.426;9.424;2023-05-07T10:46:32;15.03;;;12.70;;
8652;SDS011;4364;52.426;9.424;2023-05-07T10:49:08;13.97;;;12.47;;
8652;SDS011;4364;52.426;9.424;2023-05-07T10:51:44;13.80;;;12.30;;
8652;SDS011;4364;52.426;9.424;2023-05-07T10:54:19;13.40;;;11.80;;
8652;SDS011;4364;52.426;9.424;2023-05-07T10:57:17;13.17;;;11.77;;
8652;SDS011;4364;52.426;9.424;2023-05-07T11:00:03;14.23;;;12.43;;
8652;SDS011;4364;52.426;9.424;2023-05-07T11:03:06;14.90;;;12.30;;
8652;SDS011;4364;52.426;9.424;2023-05-07T11:06:08;15.07;;;12.37;;
8652;SDS011;4364;52.426;9.424;2023-05-07T11:08:59;13.33;;;11.93;;
8652;SDS011;4364;52.426;9.424;2023-05-07T11:17:19;13.80;;;12.03;;
8652;SDS011;4364;52.426;9.424;2023-05-07T11:19:53;12.70;;;11.43;;
8652;SDS011;4364;52.426;9.424;2023-05-07T11:22:42;13.03;;;11.30;;
8652;SDS011;4364;52.426;9.424;2023-05-07T11:25:21;13.47;;;12.07;;
8652;SDS011;4364;52.426;9.424;2023-05-07T11:28:03;12.63;;;11.33;;
8652;SDS011;4364;52.426;9.424;2023-05-07T11:30:32;11.97;;;10.73;;
8652;SDS011;4364;52.426;9.424;2023-05-07T11:32:59;11.93;;;10.70;;
8652;SDS011;4364;52.426;9.424;2023-05-07T11:35:27;12.00;;;10.83;;
8652;SDS011;4364;52.426;9.424;2023-05-07T11:37:59;12.53;;;11.23;;
8652;SDS011;4364;52.426;9.424;2023-05-07T11:40:30;12.37;;;10.70;;
8652;SDS011;4364;52.426;9.424;2023-05-07T11:42:56;11.63;;;10.53;;
8652;SDS011;4364;52.426;9.424;2023-05-07T11:45:23;10.77;;;9.67;;
8652;SDS011;4364;52.426;9.424;2023-05-07T11:47:53;13.00;;;9.93;;
8652;SDS011;4364;52.426;9.424;2023-05-07T11:50:20;12.67;;;9.70;;
8652;SDS011;4364;52.426;9.424;2023-05-07T11:52:52;11.57;;;10.10;;
8652;SDS011;4364;52.426;9.424;2023-05-07T11:55:18;11.27;;;9.77;;
8652;SDS011;4364;52.426;9.424;2023-05-07T11:57:45;10.73;;;9.63;;
8652;SDS011;4364;52.426;9.424;2023-05-07T12:00:15;11.27;;;10.17;;
8652;SDS011;4364;52.426;9.424;2023-05-07T12:02:43;10.53;;;9.50;;
8652;SDS011;4364;52.426;9.424;2023-05-07T12:05:11;10.60;;;9.53;;
8652;SDS011;4364;52.426;9.424;2023-05-07T12:07:39;11.10;;;10.00;;
8652;SDS011;4364;52.426;9.424;2023-05-07T12:10:05;10.50;;;9.40;;
8652;SDS011;4364;52.426;9.424;2023-05-07T12:12:39;11.17;;;9.90;;
8652;SDS011;4364;52.426;9.424;2023-05-07T12:15:08;10.50;;;9.47;;
8652;SDS011;4364;52.426;9.424;2023-05-07T12:17:35;11.33;;;9.80;;
8652;SDS011;4364;52.426;9.424;2023-05-07T12:20:03;11.67;;;10.00;;
8652;SDS011;4364;52.426;9.424;2023-05-07T12:22:31;9.90;;;8.87;;
8652;SDS011;4364;52.426;9.424;2023-05-07T12:24:58;11.37;;;9.93;;
8652;SDS011;4364;52.426;9.424;2023-05-07T12:27:25;9.93;;;8.93;;
8652;SDS011;4364;52.426;9.424;2023-05-07T12:29:52;11.53;;;10.10;;
8652;SDS011;4364;52.426;9.424;2023-05-07T12:32:19;10.53;;;9.43;;
8652;SDS011;4364;52.426;9.424;2023-05-07T12:34:50;10.40;;;8.90;;
8652;SDS011;4364;52.426;9.424;2023-05-07T12:37:23;9.77;;;8.37;;
8652;SDS011;4364;52.426;9.424;2023-05-07T12:40:04;9.23;;;8.33;;
8652;SDS011;4364;52.426;9.424;2023-05-07T12:42:37;9.63;;;8.07;;
8652;SDS011;4364;52.426;9.424;2023-05-07T12:45:13;9.03;;;8.13;;
8652;SDS011;4364;52.426;9.424;2023-05-07T12:47:43;9.30;;;8.40;;
8652;SDS011;4364;52.426;9.424;2023-05-07T12:50:11;9.70;;;8.70;;
8652;SDS011;4364;52.426;9.424;2023-05-07T12:52:39;9.23;;;8.30;;
8652;SDS011;4364;52.426;9.424;2023-05-07T12:55:06;9.87;;;8.87;;
8652;SDS011;4364;52.426;9.424;2023-05-07T12:57:41;10.57;;;9.47;;
8652;SDS011;4364;52.426;9.424;2023-05-07T13:00:09;9.70;;;8.80;;
8652;SDS011;4364;52.426;9.424;2023-05-07T13:02:40;10.47;;;8.83;;
8652;SDS011;4364;52.426;9.424;2023-05-07T13:05:08;9.27;;;8.37;;
8652;SDS011;4364;52.426;9.424;2023-05-07T13:07:35;9.20;;;8.30;;
8652;SDS011;4364;52.426;9.424;2023-05-07T13:10:03;8.77;;;7.83;;
8652;SDS011;4364;52.426;9.424;2023-05-07T13:12:30;9.23;;;8.27;;
8652;SDS011;4364;52.426;9.424;2023-05-07T13:14:57;8.67;;;7.87;;
8652;SDS011;4364;52.426;9.424;2023-05-07T13:17:23;8.17;;;7.20;;
8652;SDS011;4364;52.426;9.424;2023-05-07T13:19:50;8.60;;;7.80;;
8652;SDS011;4364;52.426;9.424;2023-05-07T13:22:16;9.17;;;8.27;;
8652;SDS011;4364;52.426;9.424;2023-05-07T13:24:43;9.67;;;7.83;;
8652;SDS011;4364;52.426;9.424;2023-05-07T13:27:09;9.50;;;8.00;;
8652;SDS011;4364;52.426;9.424;2023-05-07T13:29:36;7.47;;;6.73;;
8652;SDS011;4364;52.426;9.424;2023-05-07T13:32:02;8.07;;;7.27;;
8652;SDS011;4364;52.426;9.424;2023-05-07T13:34:29;8.43;;;7.10;;
8652;SDS011;4364;52.426;9.424;2023-05-07T13:36:56;8.00;;;7.20;;
8652;SDS011;4364;52.426;9.424;2023-05-07T13:39:22;7.00;;;6.40;;
8652;SDS011;4364;52.426;9.424;2023-05-07T13:41:49;8.30;;;7.50;;
8652;SDS011;4364;52.426;9.424;2023-05-07T13:44:15;9.17;;;8.07;;
8652;SDS011;4364;52.426;9.424;2023-05-07T13:46:42;9.50;;;8.20;;
8652;SDS011;4364;52.426;9.424;2023-05-07T13:49:08;10.57;;;9.50;;
8652;SDS011;4364;52.426;9.424;2023-05-07T13:51:37;10.40;;;8.53;;
8652;SDS011;4364;52.426;9.424;2023-05-07T13:54:03;10.83;;;9.83;;
8652;SDS011;4364;52.426;9.424;2023-05-07T13:56:30;10.50;;;9.40;;
8652;SDS011;4364;52.426;9.424;2023-05-07T13:58:58;9.93;;;8.93;;
8652;SDS011;4364;52.426;9.424;2023-05-07T14:01:26;9.60;;;8.70;;
8652;SDS011;4364;52.426;9.424;2023-05-07T14:03:54;10.17;;;9.27;;
8652;SDS011;4364;52.426;9.424;2023-05-07T14:06:22;10.20;;;9.20;;
8652;SDS011;4364;52.426;9.424;2023-05-07T14:08:49;10.77;;;9.63;;
8652;SDS011;4364;52.426;9.424;2023-05-07T14:11:15;8.70;;;7.90;;
8652;SDS011;4364;52.426;9.424;2023-05-07T14:13:42;9.47;;;8.47;;
8652;SDS011;4364;52.426;9.424;2023-05-07T14:16:08;10.47;;;9.40;;
8652;SDS011;4364;52.426;9.424;2023-05-07T14:18:35;12.17;;;9.67;;
8652;SDS011;4364;52.426;9.424;2023-05-07T14:21:04;10.00;;;9.20;;
8652;SDS011;4364;52.426;9.424;2023-05-07T14:23:32;10.07;;;9.07;;
8652;SDS011;4364;52.426;9.424;2023-05-07T14:25:59;11.67;;;10.40;;
8652;SDS011;4364;52.426;9.424;2023-05-07T14:28:25;10.63;;;9.63;;
8652;SDS011;4364;52.426;9.424;2023-05-07T14:30:52;11.53;;;10.43;;
8652;SDS011;4364;52.426;9.424;2023-05-07T14:33:18;10.60;;;9.47;;
8652;SDS011;4364;52.426;9.424;2023-05-07T14:35:45;10.90;;;9.83;;
8652;SDS011;4364;52.426;9.424;2023-05-07T14:38:14;11.23;;;10.13;;
8652;SDS011;4364;52.426;9.424;2023-05-07T14:40:41;11.27;;;10.17;;
8652;SDS011;4364;52.426;9.424;2023-05-07T14:43:08;12.17;;;10.77;;
8652;SDS011;4364;52.426;9.424;2023-05-07T14:45:35;11.13;;;10.03;;
8652;SDS011;4364;52.426;9.424;2023-05-07T14:48:01;10.73;;;9.73;;
8652;SDS011;4364;52.426;9.424;2023-05-07T14:50:28;10.87;;;9.73;;
8652;SDS011;4364;52.426;9.424;2023-05-07T14:52:55;10.07;;;9.07;;
8652;SDS011;4364;52.426;9.424;2023-05-07T14:55:21;12.20;;;9.17;;
8652;SDS011;4364;52.426;9.424;2023-05-07T14:57:48;9.77;;;8.77;;
8652;SDS011;4364;52.426;9.424;2023-05-07T15:00:14;10.43;;;9.07;;
8652;SDS011;4364;52.426;9.424;2023-05-07T15:02:41;9.93;;;8.90;;
8652;SDS011;4364;52.426;9.424;2023-05-07T15:05:08;10.90;;;7.97;;
8652;SDS011;4364;52.426;9.424;2023-05-07T15:07:34;9.40;;;8.50;;